Time;durP1;ratioP1;P1;durP2;ratioP2;P2;SDS_P1;SDS_P2;PMS_P1;PMS_P2;Temp;Humidity;BMP_temperature;BMP_pressure;BME280_temperature;BME280_humidity;BME280_pressure;Samples;Min_cycle;Max_cycle;Signal;HPM_P1;HPM_P2
2023/01/11 10:31:42;;;;;;;1.25;0.73;;;;;18.40;97941.00;;;;5007315;28;59607;-68
2023/01/11 10:34:29;;;;;;;1.25;0.70;;;;;18.40;97940.00;;;;4956121;28;64204;-69
2023/01/11 10:37:27;;;;;;;1.83;0.70;;;;;18.40;97928.00;;;;4979621;28;62935;-68
2023/01/11 10:41:18;;;;;;;1.80;0.80;;;;;18.40;97935.00;;;;5079064;27;68024;-67
2023/01/11 10:44:08;;;;;;;4.03;1.00;;;;;18.60;97943.00;;;;5020917;28;74253;-68
2023/01/11 10:46:40;;;;;;;2.78;0.98;;;;;18.50;97939.00;;;;5031086;28;20111;-68
2023/01/11 10:49:28;;;;;;;2.40;0.90;;;;;18.50;97935.00;;;;5045780;28;20076;-69
2023/01/11 10:52:03;;;;;;;2.28;0.98;;;;;18.50;97941.00;;;;5051110;28;20042;-68
2023/01/11 10:54:32;;;;;;;1.00;0.80;;;;;18.50;97936.00;;;;5033792;28;20111;-67
2023/01/11 10:57:17;;;;;;;1.27;0.60;;;;;18.50;97943.00;;;;5030381;28;20075;-68
2023/01/11 11:00:06;;;;;;;1.42;0.70;;;;;18.30;97948.00;;;;5030152;28;20411;-68
2023/01/11 11:11:39;;;;;;;1.25;0.70;;;;;19.80;97951.00;;;;5063268;28;20413;-64
2023/01/11 11:14:13;;;;;;;1.10;0.60;;;;;19.80;97933.00;;;;5007764;28;20053;-65
2023/01/11 11:17:05;;;;;;;2.30;1.08;;;;;19.80;97917.00;;;;5016429;28;20522;-63
2023/01/11 11:19:32;;;;;;;2.47;1.23;;;;;19.90;97910.00;;;;5008076;28;20054;-62
2023/01/11 11:21:59;;;;;;;0.95;0.80;;;;;20.00;97916.00;;;;5016769;28;20049;-62
2023/01/11 11:24:34;;;;;;;3.60;0.75;;;;;20.10;97928.00;;;;5016652;28;20100;-61
2023/01/11 11:27:18;;;;;;;3.33;0.63;;;;;20.20;97942.00;;;;5030699;28;20058;-62
2023/01/11 11:29:49;;;;;;;;;;;;;20.30;97944.00;;;;5015736;28;20068;-62
2023/01/11 11:32:24;;;;;;;5.13;0.85;;;;;20.30;97937.00;;;;5015834;28;20441;-61
2023/01/11 11:34:52;;;;;;;1.40;0.73;;;;;20.30;97940.00;;;;5015936;28;20034;-61
2023/01/11 11:37:22;;;;;;;1.50;0.70;;;;;20.30;97933.00;;;;5015635;28;20493;-62
2023/01/11 11:39:50;;;;;;;1.23;0.60;;;;;20.40;97932.00;;;;5015359;28;20046;-61
2023/01/11 11:42:19;;;;;;;0.95;0.70;;;;;20.40;97938.00;;;;5014340;28;20050;-61
2023/01/11 11:45:05;;;;;;;0.98;0.60;;;;;20.40;97959.00;;;;5040324;28;20411;-61
2023/01/11 11:47:32;;;;;;;1.45;0.70;;;;;20.40;97962.00;;;;5036973;28;20050;-62
2023/01/11 11:50:20;;;;;;;1.90;0.60;;;;;20.40;97948.00;;;;5037165;28;20072;-63
2023/01/11 11:53:06;;;;;;;2.58;0.70;;;;;20.40;97942.00;;;;5036841;28;20045;-62
2023/01/11 11:55:34;;;;;;;1.33;0.77;;;;;20.40;97943.00;;;;5036660;28;20096;-62
2023/01/11 11:58:07;;;;;;;0.60;0.60;;;;;20.40;97951.00;;;;5035681;28;20045;-62
2023/01/11 12:00:40;;;;;;;1.98;0.93;;;;;20.40;97948.00;;;;5036235;28;20045;-62
2023/01/11 12:03:15;;;;;;;1.50;0.70;;;;;20.40;97952.00;;;;5035752;28;20042;-63
2023/01/11 12:05:59;;;;;;;1.63;0.80;;;;;20.40;97944.00;;;;5037817;28;20053;-62
2023/01/11 12:08:28;;;;;;;3.75;0.80;;;;;20.40;97941.00;;;;5036351;28;20080;-62
2023/01/11 12:10:57;;;;;;;2.15;0.70;;;;;20.40;97941.00;;;;5034647;28;20046;-62
2023/01/11 12:13:30;;;;;;;5.22;1.75;;;;;20.40;97943.00;;;;5030744;28;20046;-62
2023/01/11 12:15:59;;;;;;;5.68;1.67;;;;;20.30;97936.00;;;;5015912;28;20050;-62
2023/01/11 12:18:31;;;;;;;3.42;1.27;;;;;20.30;97931.00;;;;4999822;28;20060;-62
2023/01/11 12:21:14;;;;;;;3.42;1.20;;;;;20.30;97934.00;;;;5014405;28;20125;-62
2023/01/11 12:23:41;;;;;;;5.30;1.80;;;;;20.30;97935.00;;;;5004194;28;20054;-63
2023/01/11 12:26:23;;;;;;;9.50;4.60;;;;;20.30;97932.00;;;;5003770;28;20050;-62
2023/01/11 12:29:29;;;;;;;54.20;31.80;;;;;20.30;97942.00;;;;5003873;28;20451;-62
2023/01/11 12:32:17;;;;;;;122.10;68.30;;;;;20.30;97957.00;;;;5004523;28;20097;-62
2023/01/11 12:34:58;;;;;;;114.10;69.30;;;;;20.30;97959.00;;;;5004478;28;20050;-63
2023/01/11 12:37:59;;;;;;;88.97;54.63;;;;;20.30;97957.00;;;;5016201;28;20053;-63
2023/01/11 12:40:47;;;;;;;82.55;49.38;;;;;20.30;97958.00;;;;4997267;28;20046;-63
2023/01/11 12:43:36;;;;;;;81.82;50.22;;;;;20.30;97967.00;;;;4999061;28;20105;-63
2023/01/11 12:46:20;;;;;;;82.95;50.88;;;;;20.30;97972.00;;;;4980985;28;20412;-63
2023/01/11 12:48:57;;;;;;;85.28;50.28;;;;;20.30;97973.00;;;;4995318;28;20141;-63
2023/01/11 12:51:38;;;;;;;78.10;49.72;;;;;20.30;97971.00;;;;4978705;28;20050;-64
2023/01/11 12:54:11;;;;;;;75.22;46.35;;;;;20.40;97977.00;;;;4980802;28;20412;-62
2023/01/11 12:56:50;;;;;;;79.45;46.20;;;;;20.40;97977.00;;;;4981828;28;20056;-62
2023/01/11 13:00:05;;;;;;;73.10;45.80;;;;;20.40;97975.00;;;;4979387;28;20053;-64
2023/01/11 13:03:00;;;;;;;73.82;43.80;;;;;20.40;97975.00;;;;4959936;29;20043;-63
2023/01/11 13:05:51;;;;;;;78.35;42.53;;;;;20.40;97984.00;;;;4957116;29;20047;-62
2023/01/11 13:08:33;;;;;;;68.93;42.85;;;;;20.40;97984.00;;;;4977372;28;20139;-62
2023/01/11 13:11:09;;;;;;;65.10;39.60;;;;;20.40;97995.00;;;;5014757;28;20424;-62
2023/01/11 13:14:00;;;;;;;64.05;37.50;;;;;20.40;98001.00;;;;5007593;28;20050;-62
2023/01/11 13:16:35;;;;;;;63.40;38.53;;;;;20.40;97993.00;;;;5021362;28;20056;-61
2023/01/11 13:19:15;;;;;;;60.83;38.00;;;;;20.40;97996.00;;;;5023002;28;20054;-62
2023/01/11 13:21:51;;;;;;;59.72;35.72;;;;;20.40;98006.00;;;;5037817;28;20053;-62
2023/01/11 13:24:27;;;;;;;55.97;36.15;;;;;20.40;98004.00;;;;5022184;28;20077;-61
2023/01/11 13:26:58;;;;;;;57.75;36.13;;;;;20.40;98002.00;;;;5020836;28;20037;-61
2023/01/11 13:29:29;;;;;;;59.38;34.47;;;;;20.40;97996.00;;;;5020432;28;20129;-62
2023/01/11 13:32:06;;;;;;;55.30;34.00;;;;;20.40;98005.00;;;;5035848;28;20049;-61
2023/01/11 13:34:36;;;;;;;50.28;30.60;;;;;20.40;97999.00;;;;5018936;28;20049;-61
2023/01/11 13:37:11;;;;;;;55.65;33.42;;;;;20.40;98010.00;;;;5020998;28;20054;-62
2023/01/11 13:39:47;;;;;;;50.75;32.65;;;;;20.40;98018.00;;;;5020477;28;20046;-61
2023/01/11 13:42:21;;;;;;;51.47;30.65;;;;;20.40;98024.00;;;;5020095;28;20057;-61
2023/01/11 13:44:57;;;;;;;48.10;30.30;;;;;20.40;98031.00;;;;5030988;28;20041;-61
2023/01/11 13:47:45;;;;;;;46.95;29.77;;;;;20.40;98032.00;;;;5038237;28;20099;-61
2023/01/11 13:50:20;;;;;;;47.33;29.67;;;;;20.40;98040.00;;;;5055819;28;20492;-61
2023/01/11 13:52:52;;;;;;;44.30;28.77;;;;;20.40;98045.00;;;;5037623;28;20045;-62
2023/01/11 13:55:30;;;;;;;45.58;28.40;;;;;20.40;98034.00;;;;5054271;28;20117;-62
2023/01/11 13:58:00;;;;;;;45.05;26.13;;;;;20.40;98042.00;;;;5039199;28;20076;-62
2023/01/11 14:00:36;;;;;;;40.17;24.85;;;;;20.40;98039.00;;;;5038242;28;20392;-62
2023/01/11 14:03:11;;;;;;;40.53;24.88;;;;;20.40;98051.00;;;;5041963;28;20072;-61
2023/01/11 14:06:19;;;;;;;41.42;26.20;;;;;20.20;98054.00;;;;5049538;28;20079;-54
2023/01/11 14:08:48;;;;;;;42.20;26.70;;;;;20.10;98045.00;;;;5014622;28;20490;-51
2023/01/11 14:11:39;;;;;;;34.17;22.15;;;;;20.10;98053.00;;;;5022005;28;20033;-50
2023/01/11 14:14:32;;;;;;;39.50;22.42;;;;;20.20;98053.00;;;;5019272;28;20407;-53
2023/01/11 14:17:27;;;;;;;39.75;23.38;;;;;20.20;98054.00;;;;5017988;28;20046;-58
2023/01/11 14:20:25;;;;;;;35.83;22.13;;;;;20.30;98073.00;;;;5033464;28;20121;-59
2023/01/11 14:23:15;;;;;;;35.90;21.52;;;;;20.30;98076.00;;;;5033511;28;20103;-56
2023/01/11 14:26:06;;;;;;;34.10;20.33;;;;;20.40;98083.00;;;;5028573;28;20037;-53
2023/01/11 14:28:54;;;;;;;35.45;21.83;;;;;20.40;98071.00;;;;5013836;28;20507;-55
2023/01/11 14:31:33;;;;;;;36.30;20.85;;;;;20.40;98080.00;;;;5013571;28;20096;-53
2023/01/11 14:34:35;;;;;;;30.92;20.13;;;;;20.40;98093.00;;;;5013623;28;20044;-55
2023/01/11 14:37:07;;;;;;;30.17;19.65;;;;;20.40;98103.00;;;;5014026;28;20042;-56
2023/01/11 14:40:05;;;;;;;32.53;19.20;;;;;20.50;98116.00;;;;5014030;28;20041;-56
2023/01/11 14:43:02;;;;;;;32.55;20.65;;;;;20.50;98126.00;;;;5015908;28;20073;-55
2023/01/11 14:45:57;;;;;;;33.10;19.63;;;;;20.50;98121.00;;;;5032840;28;20041;-56
2023/01/11 14:48:34;;;;;;;29.88;18.52;;;;;20.50;98122.00;;;;5032968;28;20049;-57
2023/01/11 14:51:31;;;;;;;31.45;18.25;;;;;20.50;98118.00;;;;5032814;28;20068;-57
2023/01/11 14:54:02;;;;;;;28.25;17.45;;;;;20.50;98127.00;;;;5033149;28;20518;-55
2023/01/11 14:56:40;;;;;;;27.65;17.38;;;;;20.60;98126.00;;;;5033872;28;20049;-55
2023/01/11 14:59:39;;;;;;;27.45;17.05;;;;;20.60;98139.00;;;;5032681;28;20392;-57
2023/01/11 15:02:13;;;;;;;26.30;17.05;;;;;20.60;98136.00;;;;5010054;28;20503;-56
2023/01/11 15:04:53;;;;;;;25.60;16.60;;;;;20.60;98138.00;;;;5033107;28;20052;-56
2023/01/11 15:07:29;;;;;;;28.63;17.40;;;;;20.60;98151.00;;;;5006539;28;64213;-55
2023/01/11 15:09:58;;;;;;;28.88;16.77;;;;;20.60;98157.00;;;;5010150;28;20046;-57
2023/01/11 15:12:36;;;;;;;25.33;15.45;;;;;20.60;98167.00;;;;5012494;28;20038;-55
2023/01/11 15:15:06;;;;;;;26.15;16.00;;;;;20.60;98156.00;;;;5013655;28;20061;-62
2023/01/11 15:20:20;;;;;;;23.38;15.55;;;;;20.70;98174.00;;;;5032675;28;20415;-56
2023/01/11 15:22:55;;;;;;;24.15;14.52;;;;;20.70;98162.00;;;;5032731;28;20499;-50
2023/01/11 15:25:25;;;;;;;21.52;14.82;;;;;20.70;98160.00;;;;5032000;28;20058;-50
2023/01/11 15:27:53;;;;;;;18.52;11.23;;;;;20.70;98171.00;;;;5032992;28;20050;-50
2023/01/11 15:30:28;;;;;;;24.17;15.07;;;;;20.70;98168.00;;;;5033348;28;20499;-51
2023/01/11 15:33:17;;;;;;;27.70;16.52;;;;;20.70;98160.00;;;;5033355;28;20415;-50
2023/01/11 15:35:56;;;;;;;25.05;14.35;;;;;20.70;98163.00;;;;5032354;28;20056;-51
2023/01/11 15:38:29;;;;;;;23.42;15.48;;;;;20.70;98165.00;;;;5033857;28;20046;-51
2023/01/11 15:42:02;;;;;;;26.58;14.68;;;;;20.70;98178.00;;;;5033633;28;20044;-50
2023/01/11 15:43:55;;;;;;;24.63;15.18;;;;;20.70;98182.00;;;;5032928;28;20111;-50
2023/01/11 15:47:06;;;;;;;24.23;15.05;;;;;20.70;98191.00;;;;5033605;28;20496;-50
2023/01/11 15:49:42;;;;;;;23.75;13.85;;;;;20.60;98202.00;;;;5033621;28;20091;-51
2023/01/11 15:52:37;;;;;;;24.33;14.52;;;;;20.60;98199.00;;;;5033443;28;20397;-51
2023/01/11 15:55:34;;;;;;;23.10;13.80;;;;;20.60;98197.00;;;;5033303;28;20046;-52
2023/01/11 16:00:45;;;;;;;20.55;11.60;;;;;20.50;98199.00;;;;5113475;27;20347;-51
2023/01/11 16:03:30;;;;;;;17.83;11.55;;;;;20.50;98208.00;;;;5113651;28;20044;-51
2023/01/11 16:06:14;;;;;;;20.10;12.18;;;;;20.60;98212.00;;;;5114141;28;20065;-51
2023/01/11 16:08:50;;;;;;;22.45;12.98;;;;;20.60;98224.00;;;;5093068;28;20498;-50
2023/01/11 16:11:39;;;;;;;19.77;11.98;;;;;20.60;98238.00;;;;5076342;27;20422;-50
2023/01/11 16:14:35;;;;;;;19.48;12.60;;;;;20.60;98237.00;;;;5071750;28;20044;-52
2023/01/11 16:17:10;;;;;;;19.70;11.70;;;;;20.60;98232.00;;;;5067483;28;20180;-53
2023/01/11 16:19:38;;;;;;;20.53;11.20;;;;;20.70;98239.00;;;;5073228;28;20045;-51
2023/01/11 16:22:13;;;;;;;15.30;10.25;;;;;20.70;98236.00;;;;5073276;28;20340;-51
2023/01/11 16:24:43;;;;;;;15.50;10.48;;;;;20.70;98234.00;;;;5072724;28;20060;-52
2023/01/11 16:27:20;;;;;;;15.38;9.73;;;;;20.70;98240.00;;;;5072694;28;20056;-51
2023/01/11 16:29:49;;;;;;;15.90;10.73;;;;;20.80;98250.00;;;;5073439;28;20055;-53
2023/01/11 16:32:22;;;;;;;16.15;10.50;;;;;20.80;98254.00;;;;5072752;28;20040;-53
2023/01/11 16:34:50;;;;;;;17.20;10.30;;;;;20.80;98261.00;;;;5072705;28;20052;-51
2023/01/11 16:37:33;;;;;;;16.25;10.02;;;;;20.80;98272.00;;;;5072462;28;20056;-51
2023/01/11 16:40:09;;;;;;;16.13;9.57;;;;;20.80;98259.00;;;;5072378;28;20041;-52
2023/01/11 16:43:04;;;;;;;14.65;9.82;;;;;20.80;98275.00;;;;5073424;28;20045;-51
2023/01/11 16:45:41;;;;;;;14.57;8.82;;;;;20.80;98269.00;;;;5072367;28;20494;-53
2023/01/11 16:48:19;;;;;;;15.15;9.63;;;;;20.80;98280.00;;;;5072571;28;20045;-53
2023/01/11 16:51:00;;;;;;;16.20;10.55;;;;;20.80;98280.00;;;;5072496;28;20044;-53
2023/01/11 16:53:28;;;;;;;14.65;9.45;;;;;20.80;98294.00;;;;5071787;28;20484;-52
2023/01/11 16:56:07;;;;;;;18.30;9.73;;;;;20.70;98292.00;;;;5071597;28;20459;-54
2023/01/11 16:58:36;;;;;;;14.05;9.38;;;;;20.70;98294.00;;;;5072180;28;20519;-51
2023/01/11 17:01:09;;;;;;;14.18;8.77;;;;;20.70;98305.00;;;;5073073;28;20041;-52
2023/01/11 17:03:39;;;;;;;18.47;10.40;;;;;20.70;98306.00;;;;5071549;28;20059;-53
2023/01/11 17:06:19;;;;;;;;;;;;;20.70;98310.00;;;;5072994;28;20131;-51
2023/01/11 17:08:51;;;;;;;14.48;8.70;;;;;20.70;98314.00;;;;5072781;28;19953;-49
2023/01/11 17:11:23;;;;;;;16.25;9.52;;;;;20.70;98314.00;;;;5063539;28;20055;-50
2023/01/11 17:13:58;;;;;;;15.18;9.15;;;;;20.70;98313.00;;;;5058833;28;20116;-51
2023/01/11 17:16:30;;;;;;;16.65;9.35;;;;;20.70;98321.00;;;;5059146;28;20155;-51
2023/01/11 17:19:00;;;;;;;13.63;8.85;;;;;20.70;98311.00;;;;5059273;28;20040;-52
2023/01/11 17:21:28;;;;;;;13.48;8.77;;;;;20.70;98325.00;;;;5058643;28;20049;-51
2023/01/11 17:24:01;;;;;;;13.18;8.68;;;;;20.70;98329.00;;;;5057294;28;20044;-52
2023/01/11 17:26:39;;;;;;;12.57;8.85;;;;;20.70;98336.00;;;;5056862;28;20049;-53
2023/01/11 17:29:06;;;;;;;16.08;8.20;;;;;20.70;98337.00;;;;5056933;28;20041;-50
2023/01/11 17:31:35;;;;;;;12.93;8.25;;;;;20.70;98344.00;;;;5055920;28;20103;-51
2023/01/11 17:34:15;;;;;;;14.07;8.20;;;;;20.70;98350.00;;;;5056388;28;20047;-53
2023/01/11 17:36:43;;;;;;;12.45;8.55;;;;;20.70;98342.00;;;;5055244;28;20495;-53
2023/01/11 17:39:22;;;;;;;11.65;7.95;;;;;20.70;98341.00;;;;5055229;28;20037;-51
2023/01/11 17:47:21;;;;;;;11.85;8.30;;;;;20.70;98351.00;;;;5056886;28;20044;-51
2023/01/11 17:49:49;;;;;;;15.05;8.05;;;;;20.70;98353.00;;;;5056291;28;20095;-50
2023/01/11 17:52:22;;;;;;;14.00;7.60;;;;;20.60;98359.00;;;;5056294;28;20045;-54
2023/01/11 17:54:59;;;;;;;13.82;7.75;;;;;20.60;98363.00;;;;5057946;28;20049;-54
2023/01/11 17:57:26;;;;;;;15.52;7.32;;;;;20.70;98373.00;;;;5057690;28;20045;-52
2023/01/11 18:00:27;;;;;;;12.50;6.88;;;;;20.70;98370.00;;;;5057761;28;20041;-52
2023/01/11 18:02:54;;;;;;;10.77;7.10;;;;;20.70;98372.00;;;;5057589;28;20095;-54
2023/01/11 18:05:24;;;;;;;12.95;7.50;;;;;20.70;98381.00;;;;5057674;28;20118;-53
2023/01/11 18:07:56;;;;;;;11.60;7.13;;;;;20.70;98388.00;;;;5057530;28;20498;-53
2023/01/11 18:10:26;;;;;;;10.23;6.60;;;;;20.70;98388.00;;;;5059745;28;20052;-53
2023/01/11 18:12:55;;;;;;;10.77;6.55;;;;;20.70;98398.00;;;;5059339;28;20102;-51
2023/01/11 18:15:30;;;;;;;11.68;7.13;;;;;20.70;98403.00;;;;5039093;28;20045;-52
2023/01/11 18:17:58;;;;;;;12.48;7.07;;;;;20.70;98409.00;;;;5038243;28;20049;-52
2023/01/11 18:20:27;;;;;;;12.43;7.00;;;;;20.70;98405.00;;;;5038477;28;20044;-51
2023/01/11 18:23:09;;;;;;;12.25;7.18;;;;;20.70;98402.00;;;;5036904;28;20037;-51
2023/01/11 18:25:36;;;;;;;10.48;6.85;;;;;20.70;98411.00;;;;5038372;28;20104;-52
2023/01/11 18:28:28;;;;;;;8.38;6.18;;;;;20.70;98412.00;;;;5036092;28;20068;-51
2023/01/11 18:31:00;;;;;;;11.48;6.85;;;;;20.70;98414.00;;;;5038049;28;20107;-51
2023/01/11 18:33:30;;;;;;;10.07;6.45;;;;;20.70;98410.00;;;;5037082;28;20128;-51
2023/01/11 18:35:59;;;;;;;9.13;5.85;;;;;20.60;98423.00;;;;5037931;28;20099;-51
2023/01/11 18:38:31;;;;;;;11.15;6.57;;;;;20.60;98416.00;;;;5053432;28;20531;-50
2023/01/11 18:42:06;;;;;;;10.68;6.13;;;;;20.60;98426.00;;;;5037906;28;20046;-50
2023/01/11 18:43:48;;;;;;;10.18;6.45;;;;;20.70;98423.00;;;;5037882;28;20049;-51
2023/01/11 18:46:14;;;;;;;12.32;7.10;;;;;20.70;98428.00;;;;5037475;28;20458;-54
2023/01/11 18:48:41;;;;;;;10.40;6.95;;;;;20.70;98420.00;;;;5037157;28;20050;-51
2023/01/11 18:51:15;;;;;;;10.05;6.28;;;;;20.70;98432.00;;;;5037392;28;20557;-54
2023/01/11 18:53:41;;;;;;;8.55;6.22;;;;;20.70;98439.00;;;;5038272;28;20411;-52
2023/01/11 18:56:08;;;;;;;9.40;6.25;;;;;20.70;98450.00;;;;5038028;28;20049;-53
2023/01/11 18:58:34;;;;;;;8.70;5.68;;;;;20.70;98440.00;;;;5020263;28;20045;-51
2023/01/11 19:01:02;;;;;;;8.07;5.70;;;;;20.70;98446.00;;;;5038165;28;20096;-54
2023/01/11 19:03:29;;;;;;;8.73;5.70;;;;;20.70;98450.00;;;;5038059;28;20056;-51
2023/01/11 19:05:55;;;;;;;9.45;5.65;;;;;20.70;98459.00;;;;5037312;28;20458;-50
2023/01/11 19:08:22;;;;;;;9.85;6.07;;;;;20.70;98448.00;;;;5037480;28;20060;-51
2023/01/11 19:10:50;;;;;;;10.55;5.85;;;;;20.70;98423.00;;;;5036690;28;20037;-50
2023/01/11 19:13:18;;;;;;;9.00;6.15;;;;;20.70;98432.00;;;;5039676;28;20057;-53
2023/01/11 19:15:44;;;;;;;9.50;5.78;;;;;20.70;98444.00;;;;5057918;28;20580;-51
2023/01/11 19:18:11;;;;;;;7.38;5.15;;;;;20.70;98444.00;;;;5056398;28;20052;-52
2023/01/11 19:20:39;;;;;;;7.50;5.07;;;;;20.70;98443.00;;;;5057542;28;20048;-52
2023/01/11 19:23:06;;;;;;;11.38;5.45;;;;;20.70;98446.00;;;;5058104;28;20052;-54
2023/01/11 19:25:32;;;;;;;8.90;6.07;;;;;20.70;98451.00;;;;5057568;28;20044;-52
2023/01/11 19:28:01;;;;;;;9.40;5.53;;;;;20.70;98448.00;;;;5057413;28;20048;-52
2023/01/11 19:30:28;;;;;;;7.68;5.13;;;;;20.70;98446.00;;;;5058151;28;20041;-53
2023/01/11 19:32:55;;;;;;;8.85;5.40;;;;;20.70;98454.00;;;;5058053;28;20040;-51
2023/01/11 19:35:22;;;;;;;8.40;4.90;;;;;20.70;98458.00;;;;5058160;28;20126;-52
2023/01/11 19:37:50;;;;;;;8.85;4.97;;;;;20.60;98458.00;;;;5058450;28;20067;-51
2023/01/11 19:40:18;;;;;;;7.55;5.63;;;;;20.60;98466.00;;;;5057277;28;20044;-52
2023/01/11 19:42:46;;;;;;;9.75;5.70;;;;;20.60;98468.00;;;;5057878;28;20040;-53
2023/01/11 19:45:13;;;;;;;6.38;4.60;;;;;20.60;98480.00;;;;5057623;28;20050;-53
2023/01/11 19:47:39;;;;;;;7.75;5.43;;;;;20.60;98478.00;;;;5057600;28;20103;-52
2023/01/11 19:50:06;;;;;;;6.70;5.18;;;;;20.60;98479.00;;;;5057964;28;20045;-52
2023/01/11 19:52:33;;;;;;;7.65;5.07;;;;;20.60;98479.00;;;;5056576;28;20053;-51
2023/01/11 19:54:59;;;;;;;6.90;4.85;;;;;20.60;98467.00;;;;5056693;28;20044;-50
2023/01/11 19:57:26;;;;;;;8.00;4.70;;;;;20.70;98465.00;;;;5039481;28;20502;-52
2023/01/11 19:59:52;;;;;;;6.97;4.45;;;;;20.70;98480.00;;;;5055409;28;20093;-51
2023/01/11 20:02:20;;;;;;;8.13;5.25;;;;;20.70;98475.00;;;;5056619;28;20102;-51
2023/01/11 20:04:47;;;;;;;8.27;5.20;;;;;20.70;98464.00;;;;5056849;28;20055;-51
2023/01/11 20:07:14;;;;;;;6.40;4.50;;;;;20.70;98461.00;;;;5056914;28;20391;-54
2023/01/11 20:09:41;;;;;;;7.38;4.60;;;;;20.70;98450.00;;;;5058147;28;20102;-52
2023/01/11 20:12:09;;;;;;;6.63;4.50;;;;;20.70;98452.00;;;;5057668;28;20068;-53
2023/01/11 20:14:37;;;;;;;6.28;4.63;;;;;20.70;98451.00;;;;5057492;28;20044;-52
2023/01/11 20:17:04;;;;;;;7.85;4.90;;;;;20.70;98456.00;;;;5057213;28;20103;-51
2023/01/11 20:19:31;;;;;;;8.50;4.78;;;;;20.70;98454.00;;;;5056640;28;20049;-53
2023/01/11 20:21:57;;;;;;;7.57;4.97;;;;;20.70;98459.00;;;;5057139;28;20037;-52
2023/01/11 20:24:27;;;;;;;6.70;4.25;;;;;20.70;98450.00;;;;5056733;28;20048;-53
2023/01/11 20:27:00;;;;;;;6.82;4.70;;;;;20.70;98450.00;;;;5056551;28;20045;-52
2023/01/11 20:29:26;;;;;;;5.55;4.43;;;;;20.70;98442.00;;;;5055962;28;20107;-53
2023/01/11 20:31:53;;;;;;;6.18;4.50;;;;;20.70;98441.00;;;;5055606;28;20045;-52
2023/01/11 20:34:20;;;;;;;6.43;4.30;;;;;20.70;98438.00;;;;5053296;28;20053;-54
2023/01/11 20:36:47;;;;;;;6.75;4.43;;;;;20.70;98443.00;;;;5056811;28;20044;-53
2023/01/11 20:39:14;;;;;;;5.25;4.22;;;;;20.70;98441.00;;;;5056998;28;20045;-53
2023/01/11 20:41:47;;;;;;;6.70;4.20;;;;;20.70;98442.00;;;;5056765;28;20406;-51
2023/01/11 20:44:16;;;;;;;7.15;4.20;;;;;20.70;98440.00;;;;5054997;28;20106;-51
2023/01/11 20:46:43;;;;;;;6.20;4.53;;;;;20.70;98453.00;;;;5059375;28;20045;-53
2023/01/11 20:49:13;;;;;;;6.85;4.22;;;;;20.60;98446.00;;;;5060131;28;20443;-52
2023/01/11 20:51:40;;;;;;;5.90;4.38;;;;;20.60;98454.00;;;;5060453;28;20091;-52
2023/01/11 20:54:07;;;;;;;6.65;4.30;;;;;20.60;98455.00;;;;5060258;28;20041;-52
2023/01/11 20:56:34;;;;;;;6.20;4.15;;;;;20.60;98459.00;;;;5060722;28;20499;-54
2023/01/11 20:59:01;;;;;;;6.35;4.30;;;;;20.60;98460.00;;;;5060457;28;20568;-53
2023/01/11 21:01:29;;;;;;;5.05;4.05;;;;;20.60;98449.00;;;;5060814;28;20045;-52
2023/01/11 21:04:04;;;;;;;6.95;4.55;;;;;20.60;98453.00;;;;5060611;28;20049;-53
2023/01/11 21:06:33;;;;;;;5.78;3.88;;;;;20.60;98440.00;;;;5060681;28;20052;-54
2023/01/11 21:09:00;;;;;;;6.18;3.80;;;;;20.60;98442.00;;;;5060865;28;20094;-54
2023/01/11 21:11:30;;;;;;;5.40;3.95;;;;;20.60;98447.00;;;;5060196;28;20040;-52
2023/01/11 21:13:58;;;;;;;5.78;3.92;;;;;20.60;98449.00;;;;5060751;28;20487;-51
2023/01/11 21:16:27;;;;;;;6.53;3.70;;;;;20.60;98435.00;;;;5060670;28;20054;-52
2023/01/11 21:18:58;;;;;;;7.05;4.00;;;;;20.60;98432.00;;;;5060581;28;20410;-52
2023/01/11 21:21:27;;;;;;;5.40;3.70;;;;;20.60;98431.00;;;;5061046;28;20071;-53
2023/01/11 21:23:56;;;;;;;7.10;3.92;;;;;20.60;98424.00;;;;5060649;28;20049;-51
2023/01/11 21:26:24;;;;;;;5.47;3.65;;;;;20.60;98428.00;;;;5060621;28;20469;-52
2023/01/11 21:28:54;;;;;;;4.82;3.83;;;;;20.60;98430.00;;;;5060868;28;20037;-51
2023/01/11 21:31:21;;;;;;;4.63;3.45;;;;;20.50;98421.00;;;;5061001;28;20109;-52
2023/01/11 21:33:49;;;;;;;5.38;3.63;;;;;20.50;98431.00;;;;5060055;28;20045;-52
2023/01/11 21:36:18;;;;;;;6.22;4.00;;;;;20.50;98421.00;;;;5059743;28;20053;-51
2023/01/11 21:38:45;;;;;;;5.20;3.30;;;;;20.50;98421.00;;;;5058232;28;20053;-49
2023/01/11 21:41:14;;;;;;;5.68;3.22;;;;;20.50;98422.00;;;;5057143;28;20041;-53
2023/01/11 21:43:41;;;;;;;5.60;2.90;;;;;20.50;98421.00;;;;5055856;28;20045;-52
2023/01/11 21:46:37;;;;;;;5.68;3.58;;;;;20.40;98426.00;;;;5102630;27;20850;-53
2023/01/11 21:49:04;;;;;;;5.07;3.05;;;;;20.40;98416.00;;;;5087807;28;20055;-50
2023/01/11 21:51:33;;;;;;;4.93;3.33;;;;;20.40;98422.00;;;;5071055;27;20045;-51
2023/01/11 21:54:03;;;;;;;4.03;3.13;;;;;20.40;98426.00;;;;5048162;28;20099;-51
2023/01/11 21:56:30;;;;;;;4.85;3.38;;;;;20.40;98426.00;;;;5047917;28;20553;-50
2023/01/11 21:58:56;;;;;;;6.03;3.70;;;;;20.40;98425.00;;;;5047897;28;20536;-50
2023/01/11 22:01:22;;;;;;;5.18;3.30;;;;;20.40;98421.00;;;;5047955;28;20511;-50
2023/01/11 22:03:49;;;;;;;4.53;3.42;;;;;20.40;98424.00;;;;5048555;28;20052;-50
2023/01/11 22:06:16;;;;;;;5.28;3.25;;;;;20.40;98419.00;;;;5049831;28;20065;-49
2023/01/11 22:08:43;;;;;;;5.32;3.05;;;;;20.40;98422.00;;;;5050142;28;20396;-52
2023/01/11 22:11:12;;;;;;;4.93;3.15;;;;;20.40;98423.00;;;;5048366;28;20501;-53
2023/01/11 22:13:39;;;;;;;4.55;3.10;;;;;20.40;98418.00;;;;5050681;28;20092;-50
2023/01/11 22:16:11;;;;;;;5.03;3.10;;;;;20.40;98424.00;;;;5050785;28;20042;-52
2023/01/11 22:18:39;;;;;;;5.72;3.00;;;;;20.40;98422.00;;;;5050676;28;20052;-50
2023/01/11 22:21:09;;;;;;;3.40;2.85;;;;;20.40;98417.00;;;;5049913;28;20556;-59
2023/01/11 22:23:36;;;;;;;4.05;2.88;;;;;20.40;98411.00;;;;5049797;28;20384;-50
2023/01/11 22:26:04;;;;;;;4.30;2.90;;;;;20.40;98406.00;;;;5049620;28;20041;-52
2023/01/11 22:28:31;;;;;;;3.65;2.97;;;;;20.40;98410.00;;;;5048619;28;20079;-50
2023/01/11 22:31:04;;;;;;;5.38;3.25;;;;;20.40;98409.00;;;;5049814;28;20041;-51
2023/01/11 22:33:31;;;;;;;5.93;3.00;;;;;20.40;98421.00;;;;5049906;28;20124;-50
2023/01/11 22:35:57;;;;;;;5.13;3.00;;;;;20.40;98417.00;;;;5048334;28;20037;-53
2023/01/11 22:38:24;;;;;;;5.85;3.00;;;;;20.40;98423.00;;;;5049216;28;20179;-55
2023/01/11 22:40:50;;;;;;;5.00;2.75;;;;;20.30;98423.00;;;;5049991;28;20552;-53
2023/01/11 22:43:17;;;;;;;4.82;3.25;;;;;20.30;98426.00;;;;5049114;28;20539;-54
2023/01/11 22:45:53;;;;;;;4.38;3.00;;;;;20.30;98421.00;;;;5049077;28;20094;-55
2023/01/11 22:48:20;;;;;;;4.38;2.95;;;;;20.30;98420.00;;;;5049166;28;20099;-54
2023/01/11 22:50:46;;;;;;;3.30;2.58;;;;;20.20;98420.00;;;;5049100;28;20045;-54
2023/01/11 22:53:12;;;;;;;3.80;3.20;;;;;20.20;98403.00;;;;5049014;28;20410;-54
2023/01/11 22:55:39;;;;;;;3.50;2.90;;;;;20.20;98415.00;;;;5048942;28;20115;-54
2023/01/11 22:58:05;;;;;;;4.57;3.15;;;;;20.20;98422.00;;;;5035078;28;20049;-56
2023/01/11 23:00:32;;;;;;;3.47;2.92;;;;;20.20;98416.00;;;;5035779;28;20530;-55
2023/01/11 23:02:58;;;;;;;4.10;2.83;;;;;20.20;98415.00;;;;5035721;28;20100;-55
2023/01/11 23:05:25;;;;;;;4.60;2.83;;;;;20.20;98409.00;;;;5035546;28;20041;-55
2023/01/11 23:07:52;;;;;;;4.20;2.65;;;;;20.10;98411.00;;;;5035550;28;20112;-55
2023/01/11 23:10:19;;;;;;;4.22;2.95;;;;;20.10;98413.00;;;;5035703;28;20084;-55
2023/01/11 23:15:31;;;;;;;4.15;2.92;;;;;20.10;98412.00;;;;5015942;28;20092;-54
2023/01/11 23:17:57;;;;;;;3.83;2.70;;;;;20.10;98415.00;;;;5015548;28;20503;-54
2023/01/11 23:20:24;;;;;;;3.45;3.00;;;;;20.10;98395.00;;;;5015556;28;20392;-55
2023/01/11 23:22:50;;;;;;;4.78;3.05;;;;;20.10;98404.00;;;;5015598;28;20463;-54
2023/01/11 23:25:17;;;;;;;4.75;2.75;;;;;20.10;98399.00;;;;5015244;28;20512;-54
2023/01/11 23:27:43;;;;;;;4.28;3.10;;;;;20.10;98393.00;;;;5015303;28;20488;-54
2023/01/11 23:30:10;;;;;;;3.80;2.88;;;;;20.00;98397.00;;;;5015660;28;20459;-56
2023/01/11 23:32:36;;;;;;;3.55;2.45;;;;;20.00;98378.00;;;;5015385;28;20057;-56
2023/01/11 23:35:04;;;;;;;4.55;2.67;;;;;20.00;98376.00;;;;5015253;28;20061;-55
2023/01/11 23:37:30;;;;;;;5.38;2.53;;;;;20.00;98377.00;;;;5015184;28;20092;-54
2023/01/11 23:39:57;;;;;;;4.07;2.78;;;;;20.00;98380.00;;;;5015202;28;20107;-54